createdAt,value
2022-08-07T00:00:03.675Z,63.99
2022-08-07T00:01:44.588Z,65.40
2022-08-07T00:02:41.009Z,63.62
2022-08-07T00:03:47.416Z,63.40
2022-08-07T00:04:50.529Z,64.73
2022-08-07T00:05:53.149Z,63.22
2022-08-07T00:06:56.889Z,64.80
2022-08-07T00:08:04.302Z,64.37
2022-08-07T00:09:17.099Z,65.58
2022-08-07T00:10:26.533Z,64.07
2022-08-07T00:11:33.151Z,63.84
2022-08-07T00:12:35.298Z,64.74
2022-08-07T00:13:58.269Z,63.80
2022-08-07T00:15:01.365Z,65.08
2022-08-07T00:16:04.938Z,65.37
2022-08-07T00:17:09.459Z,65.74
2022-08-07T00:18:19.349Z,65.63
2022-08-07T00:19:26.115Z,64.73
2022-08-07T00:20:44.902Z,64.28
2022-08-07T00:21:56.593Z,64.89
2022-08-07T00:23:07.337Z,64.80
2022-08-07T00:24:11.772Z,66.10
2022-08-07T00:25:16.735Z,65.24
2022-08-07T00:26:49.205Z,65.17
2022-08-07T00:27:52.796Z,64.53
2022-08-07T00:28:57.185Z,64.07
2022-08-07T00:29:59.130Z,65.50
2022-08-07T00:31:05.740Z,64.92
2022-08-07T00:32:08.568Z,65.23
2022-08-07T00:33:13.402Z,64.47
2022-08-07T00:34:15.478Z,64.17
2022-08-07T00:35:24.599Z,64.60
2022-08-07T00:36:27.935Z,65.27
2022-08-07T00:37:47.780Z,65.32
2022-08-07T00:38:51.617Z,64.07
2022-08-07T00:39:54.722Z,63.85
2022-08-07T00:40:58.057Z,64.14
2022-08-07T00:42:02.235Z,64.27
2022-08-07T00:43:10.011Z,64.07
2022-08-07T00:44:15.151Z,64.29
2022-08-07T00:45:17.362Z,64.04
2022-08-07T00:46:20.414Z,64.00
2022-08-07T00:48:09.518Z,63.84
2022-08-07T00:48:49.970Z,63.82
2022-08-07T00:50:19.652Z,64.07
2022-08-07T00:51:17.189Z,64.52
2022-08-07T00:52:20.053Z,64.89
2022-08-07T00:53:24.052Z,63.78
2022-08-07T00:54:26.111Z,64.60
2022-08-07T00:56:00.524Z,64.11
2022-08-07T00:56:53.847Z,64.24
2022-08-07T00:57:56.381Z,63.80
2022-08-07T00:58:59.691Z,64.44
2022-08-07T01:00:01.897Z,64.33
2022-08-07T01:01:06.017Z,64.46
2022-08-07T01:02:28.785Z,64.80
2022-08-07T01:03:55.801Z,63.42
2022-08-07T01:04:58.294Z,63.70
2022-08-07T01:06:03.160Z,63.44
2022-08-07T01:07:05.972Z,63.32
2022-08-07T01:08:11.245Z,63.67
2022-08-07T01:10:03.869Z,63.61
2022-08-07T01:10:36.740Z,62.92
2022-08-07T01:12:09.388Z,63.16
2022-08-07T01:13:03.654Z,63.53
2022-08-07T01:14:07.793Z,63.10
2022-08-07T01:15:16.939Z,63.46
2022-08-07T01:16:30.021Z,63.51
2022-08-07T01:17:36.275Z,63.23
2022-08-07T01:18:42.251Z,63.30
2022-08-07T01:19:53.880Z,63.33
2022-08-07T01:21:22.688Z,63.38
2022-08-07T01:22:29.310Z,62.79
2022-08-07T01:23:38.778Z,63.01
2022-08-07T01:24:44.846Z,63.33
2022-08-07T01:25:55.381Z,62.89
2022-08-07T01:26:59.996Z,63.06
2022-08-07T01:28:03.517Z,62.77
2022-08-07T01:29:06.273Z,63.05
2022-08-07T01:30:11.826Z,63.13
2022-08-07T01:31:27.810Z,63.17
2022-08-07T01:32:44.539Z,62.88
2022-08-07T01:33:55.905Z,63.11
2022-08-07T01:35:03.176Z,62.94
2022-08-07T01:36:09.948Z,62.75
2022-08-07T01:37:17.413Z,63.33
2022-08-07T01:38:25.491Z,62.95
2022-08-07T01:39:40.418Z,63.30
2022-08-07T01:40:56.222Z,62.43
2022-08-07T01:42:07.593Z,62.87
2022-08-07T01:43:22.015Z,62.69
2022-08-07T01:44:28.529Z,62.58
2022-08-07T01:45:36.859Z,63.12
2022-08-07T01:46:47.100Z,61.84
2022-08-07T01:48:20.310Z,63.03
2022-08-07T01:49:13.882Z,62.99
2022-08-07T01:50:28.648Z,62.31
2022-08-07T01:52:03.276Z,62.66
2022-08-07T01:52:58.828Z,62.49
2022-08-07T01:54:08.738Z,62.14
2022-08-07T01:55:22.556Z,62.65
2022-08-07T01:56:32.738Z,62.28
2022-08-07T01:58:01.350Z,61.86
2022-08-07T01:59:15.845Z,62.40
2022-08-07T02:00:19.186Z,62.52
2022-08-07T02:02:01.569Z,62.40
2022-08-07T02:03:18.324Z,62.17
2022-08-07T02:04:30.333Z,62.99
2022-08-07T02:05:43.248Z,63.36
2022-08-07T02:06:56.336Z,63.15
2022-08-07T02:08:06.350Z,62.82
2022-08-07T02:09:33.736Z,62.47
2022-08-07T02:10:42.857Z,62.78
2022-08-07T02:12:03.939Z,62.87
2022-08-07T02:13:11.782Z,63.15
2022-08-07T02:14:40.787Z,63.09
2022-08-07T02:15:53.173Z,63.03
2022-08-07T02:16:57.613Z,62.85
2022-08-07T02:18:02.896Z,62.88
2022-08-07T02:20:06.609Z,63.07
2022-08-07T02:20:34.750Z,62.80
2022-08-07T02:21:55.232Z,62.90
2022-08-07T02:23:04.440Z,62.26
2022-08-07T02:24:07.599Z,63.65
2022-08-07T02:25:18.139Z,63.93
2022-08-07T02:26:34.629Z,63.14
2022-08-07T02:27:42.778Z,63.17
2022-08-07T02:28:56.134Z,62.62
2022-08-07T02:30:03.900Z,63.38
2022-08-07T02:31:18.868Z,63.37
2022-08-07T02:32:33.686Z,63.67
2022-08-07T02:33:57.269Z,64.49
2022-08-07T02:35:06.163Z,64.57
2022-08-07T02:36:29.816Z,64.92
2022-08-07T02:37:43.901Z,65.19
2022-08-07T02:38:50.672Z,63.68
2022-08-07T02:40:11.462Z,64.44
2022-08-07T02:41:24.028Z,64.04
2022-08-07T02:42:36.964Z,64.62
2022-08-07T02:43:42.273Z,64.39
2022-08-07T02:44:53.478Z,64.75
2022-08-07T02:46:02.534Z,64.41
2022-08-07T02:47:07.964Z,63.46
2022-08-07T02:48:25.726Z,64.10
2022-08-07T02:49:58.722Z,64.36
2022-08-07T02:50:55.587Z,64.09
2022-08-07T02:52:01.683Z,64.35
2022-08-07T02:53:10.888Z,64.01
2022-08-07T02:54:16.801Z,64.24
2022-08-07T02:55:28.445Z,64.28
2022-08-07T02:56:47.571Z,63.88
2022-08-07T02:57:53.253Z,64.12
2022-08-07T02:58:55.762Z,63.34
2022-08-07T03:00:04.927Z,63.64
2022-08-07T03:01:18.721Z,64.16
2022-08-07T03:02:22.635Z,63.20
2022-08-07T03:03:42.163Z,63.57
2022-08-07T03:04:54.497Z,63.63
2022-08-07T03:05:57.747Z,64.37
2022-08-07T03:07:03.371Z,65.23
2022-08-07T03:08:16.561Z,64.40
2022-08-07T03:09:43.294Z,64.30
2022-08-07T03:10:47.263Z,64.29
2022-08-07T03:11:57.760Z,63.89
2022-08-07T03:13:05.369Z,63.65
2022-08-07T03:14:12.353Z,64.47
2022-08-07T03:15:15.200Z,64.41
2022-08-07T03:16:35.138Z,63.74
2022-08-07T03:17:53.654Z,64.09
2022-08-07T03:18:58.714Z,64.17
2022-08-07T03:20:01.478Z,65.30
2022-08-07T03:21:08.473Z,64.26
2022-08-07T03:22:18.990Z,65.03
2022-08-07T03:23:33.619Z,64.24
2022-08-07T03:24:48.990Z,63.60
2022-08-07T03:25:58.268Z,63.35
2022-08-07T03:27:09.117Z,63.74
2022-08-07T03:28:38.426Z,63.01
2022-08-07T03:29:51.131Z,63.80
2022-08-07T03:31:12.866Z,63.38
2022-08-07T03:32:20.872Z,63.39
2022-08-07T03:33:26.766Z,63.69
2022-08-07T03:34:39.555Z,64.84
2022-08-07T03:35:50.814Z,64.07
2022-08-07T03:36:57.301Z,65.20
2022-08-07T03:38:04.823Z,64.57
2022-08-07T03:39:12.991Z,64.37
2022-08-07T03:40:19.778Z,64.60
2022-08-07T03:41:42.466Z,63.74
2022-08-07T03:42:49.561Z,64.79
2022-08-07T03:43:57.464Z,63.95
2022-08-07T03:45:04.978Z,64.39
2022-08-07T03:46:18.125Z,63.80
2022-08-07T03:47:23.092Z,64.65
2022-08-07T03:48:26.702Z,63.81
2022-08-07T03:49:35.025Z,64.11
2022-08-07T03:50:38.911Z,63.81
2022-08-07T03:52:00.989Z,63.62
2022-08-07T03:53:06.895Z,63.98
2022-08-07T03:54:36.002Z,63.27
2022-08-07T03:55:58.303Z,64.07
2022-08-07T03:57:06.221Z,63.08
2022-08-07T03:59:05.667Z,63.23
2022-08-07T03:59:34.623Z,63.13
2022-08-07T04:00:38.675Z,63.77
2022-08-07T04:01:50.993Z,63.68
2022-08-07T04:02:57.168Z,63.28
2022-08-07T04:04:06.064Z,62.92
2022-08-07T04:05:09.751Z,64.10
2022-08-07T04:06:37.308Z,63.70
2022-08-07T04:07:42.449Z,63.74
2022-08-07T04:08:49.215Z,64.12
2022-08-07T04:09:53.224Z,63.72
2022-08-07T04:12:24.146Z,63.69
2022-08-07T04:12:28.787Z,64.50
2022-08-07T04:14:10.311Z,64.31
2022-08-07T04:15:00.283Z,64.60
2022-08-07T04:16:06.298Z,63.67
2022-08-07T04:17:20.066Z,63.89
2022-08-07T04:18:58.386Z,64.64
2022-08-07T04:19:52.270Z,63.63
2022-08-07T04:20:56.876Z,63.96
2022-08-07T04:22:08.639Z,63.86
2022-08-07T04:23:19.408Z,64.04
2022-08-07T04:24:30.437Z,63.88
2022-08-07T04:25:40.879Z,63.71
2022-08-07T04:26:46.507Z,64.40
2022-08-07T04:27:59.354Z,64.50
2022-08-07T04:29:04.461Z,64.31
2022-08-07T04:30:13.440Z,64.21
2022-08-07T04:31:39.090Z,63.36
2022-08-07T04:32:58.219Z,63.88
2022-08-07T04:34:04.214Z,64.14
2022-08-07T04:35:19.544Z,63.81
2022-08-07T04:36:26.081Z,64.03
2022-08-07T04:37:29.176Z,64.41
2022-08-07T04:38:43.674Z,63.93
2022-08-07T04:39:47.916Z,63.42
2022-08-07T04:40:56.842Z,63.66
2022-08-07T04:42:15.973Z,63.81
2022-08-07T04:43:21.104Z,63.95
2022-08-07T04:44:26.045Z,63.67
2022-08-07T04:46:00.314Z,63.10
2022-08-07T04:47:08.975Z,64.03
2022-08-07T04:48:28.227Z,64.19
2022-08-07T04:49:57.974Z,63.64
2022-08-07T04:51:12.164Z,63.78
2022-08-07T04:52:31.372Z,63.40
2022-08-07T04:54:05.382Z,63.72
2022-08-07T04:55:15.210Z,63.80
2022-08-07T04:58:15.885Z,63.78
2022-08-07T04:58:34.852Z,63.40
2022-08-07T05:00:10.747Z,63.42
2022-08-07T05:01:15.772Z,63.00
2022-08-07T05:02:27.218Z,62.47
2022-08-07T05:03:59.876Z,62.55
2022-08-07T05:05:12.038Z,62.40
2022-08-07T05:06:43.539Z,62.21
2022-08-07T05:08:01.959Z,62.38
2022-08-07T05:09:16.559Z,62.02
2022-08-07T05:10:24.188Z,62.03
2022-08-07T05:11:58.933Z,61.54
2022-08-07T05:14:44.784Z,61.63
2022-08-07T05:14:52.563Z,61.45
2022-08-07T05:15:53.734Z,61.80
2022-08-07T05:17:01.639Z,62.18
2022-08-07T05:18:13.407Z,61.51
2022-08-07T05:19:32.676Z,61.96
2022-08-07T05:20:52.174Z,61.89
2022-08-07T05:22:04.507Z,61.68
2022-08-07T05:23:15.827Z,62.08
2022-08-07T05:24:24.638Z,61.77
2022-08-07T05:25:54.523Z,61.66
2022-08-07T05:27:00.842Z,62.32
2022-08-07T05:28:20.728Z,61.64
2022-08-07T05:29:38.818Z,62.05
2022-08-07T05:30:53.192Z,62.51
2022-08-07T05:31:56.429Z,62.04
2022-08-07T05:33:06.275Z,62.22
2022-08-07T05:34:11.917Z,62.24
2022-08-07T05:35:33.131Z,61.55
2022-08-07T05:36:38.955Z,61.61
2022-08-07T05:37:47.367Z,61.89
2022-08-07T05:40:05.731Z,61.30
2022-08-07T05:40:50.546Z,61.18
2022-08-07T05:42:02.735Z,61.92
2022-08-07T05:43:06.216Z,61.74
2022-08-07T05:44:14.741Z,60.81
2022-08-07T05:45:26.222Z,60.56
2022-08-07T05:46:51.302Z,59.65
2022-08-07T05:48:01.114Z,60.88
2022-08-07T05:49:12.500Z,61.12
2022-08-07T05:50:18.866Z,60.71
2022-08-07T05:51:22.984Z,60.32
2022-08-07T05:52:32.496Z,60.59
2022-08-07T05:54:14.151Z,60.52
2022-08-07T05:55:06.803Z,60.06
2022-08-07T05:56:15.374Z,60.47
2022-08-07T05:57:26.575Z,60.30
2022-08-07T05:58:36.864Z,60.25
2022-08-07T05:59:56.105Z,60.15
2022-08-07T06:01:08.437Z,59.44
2022-08-07T06:02:21.516Z,58.96
2022-08-07T06:03:51.573Z,58.71
2022-08-07T06:05:03.863Z,59.01
2022-08-07T06:06:07.473Z,59.00
2022-08-07T06:07:22.991Z,57.46
2022-08-07T06:08:42.065Z,57.75
2022-08-07T06:10:05.765Z,57.13
2022-08-07T06:11:09.994Z,57.02
2022-08-07T06:12:12.427Z,57.48
2022-08-07T06:13:19.110Z,59.03
2022-08-07T06:14:34.349Z,59.29
2022-08-07T06:15:42.327Z,56.33
2022-08-07T06:16:56.418Z,56.18
2022-08-07T06:18:09.623Z,57.18
2022-08-07T06:19:17.600Z,56.77
2022-08-07T06:20:25.462Z,56.64
2022-08-07T06:22:16.918Z,56.22
2022-08-07T06:23:45.922Z,57.47
2022-08-07T06:24:45.991Z,57.88
2022-08-07T06:25:57.035Z,56.49
2022-08-07T06:27:03.760Z,56.84
2022-08-07T06:28:09.416Z,56.72
2022-08-07T06:29:17.142Z,56.68
2022-08-07T06:30:31.945Z,56.79
2022-08-07T06:31:50.021Z,56.16
2022-08-07T06:32:55.961Z,55.86
2022-08-07T06:33:58.928Z,55.57
2022-08-07T06:35:01.364Z,54.17
2022-08-07T06:36:06.660Z,54.98
2022-08-07T06:37:43.555Z,55.06
2022-08-07T06:38:51.670Z,56.40
2022-08-07T06:40:16.427Z,56.02
2022-08-07T06:42:00.417Z,54.18
2022-08-07T06:42:54.457Z,54.12
2022-08-07T06:44:14.757Z,54.55
2022-08-07T06:45:24.618Z,54.33
2022-08-07T06:46:35.492Z,53.43
2022-08-07T06:47:57.228Z,55.70
2022-08-07T06:49:04.376Z,53.58
2022-08-07T06:50:10.935Z,53.30
2022-08-07T06:51:31.114Z,55.63
2022-08-07T06:52:42.879Z,55.72
2022-08-07T06:55:28.486Z,54.17
2022-08-07T06:55:31.765Z,55.50
2022-08-07T06:56:48.658Z,55.51
2022-08-07T06:58:01.710Z,56.04
2022-08-07T07:00:14.490Z,54.83
2022-08-07T07:00:39.673Z,55.63
2022-08-07T07:01:50.935Z,54.82
2022-08-07T07:02:58.047Z,54.61
2022-08-07T07:04:32.627Z,53.44
2022-08-07T07:06:03.041Z,53.87
2022-08-07T07:06:57.588Z,54.45
2022-08-07T07:08:07.382Z,52.95
2022-08-07T07:09:21.127Z,52.83
2022-08-07T07:10:31.129Z,54.91
2022-08-07T07:12:08.692Z,53.50
2022-08-07T07:13:02.501Z,55.19
2022-08-07T07:14:08.274Z,55.31
2022-08-07T07:15:23.812Z,54.47
2022-08-07T07:16:34.182Z,55.28
2022-08-07T07:17:54.017Z,53.96
2022-08-07T07:19:11.279Z,53.32
2022-08-07T07:20:33.291Z,54.85
2022-08-07T07:22:05.392Z,54.25
2022-08-07T07:24:08.947Z,54.23
2022-08-07T07:24:29.966Z,54.09
2022-08-07T07:26:32.404Z,53.04
2022-08-07T07:27:03.306Z,55.04
2022-08-07T07:28:42.537Z,54.87
2022-08-07T07:30:09.224Z,55.93
2022-08-07T07:31:07.087Z,55.72
2022-08-07T07:32:14.026Z,53.40
2022-08-07T07:33:19.868Z,53.24
2022-08-07T07:34:31.233Z,53.71
2022-08-07T07:35:50.638Z,54.57
2022-08-07T07:37:14.520Z,55.10
2022-08-07T07:38:25.913Z,54.37
2022-08-07T07:39:45.472Z,55.49
2022-08-07T07:41:00.032Z,55.75
2022-08-07T07:42:13.309Z,55.19
2022-08-07T07:43:27.714Z,54.68
2022-08-07T07:44:49.644Z,54.04
2022-08-07T07:46:37.691Z,56.14
2022-08-07T07:47:22.861Z,55.16
2022-08-07T07:48:41.269Z,54.52
2022-08-07T07:50:34.299Z,54.81
2022-08-07T07:51:15.466Z,54.70
2022-08-07T07:52:19.719Z,56.21
2022-08-07T07:53:25.748Z,55.72
2022-08-07T07:54:30.497Z,55.71
2022-08-07T07:55:37.130Z,56.17
2022-08-07T07:56:41.462Z,56.63
2022-08-07T07:57:52.907Z,56.38
2022-08-07T07:58:57.034Z,57.08
2022-08-07T08:00:02.149Z,56.97
2022-08-07T08:02:03.151Z,56.94
2022-08-07T08:03:04.596Z,57.67
2022-08-07T08:04:11.629Z,55.64
2022-08-07T08:05:16.505Z,56.09
2022-08-07T08:06:21.337Z,56.25
2022-08-07T08:07:26.597Z,55.67
2022-08-07T08:08:39.244Z,56.04
2022-08-07T08:09:52.047Z,56.63
2022-08-07T08:11:09.283Z,56.71
2022-08-07T08:12:42.929Z,57.49
2022-08-07T08:13:54.852Z,56.67
2022-08-07T08:14:57.959Z,54.95
2022-08-07T08:16:04.097Z,55.88
2022-08-07T08:17:55.934Z,55.01
2022-08-07T08:18:34.541Z,55.45
2022-08-07T08:20:16.943Z,55.98
2022-08-07T08:21:07.568Z,55.23
2022-08-07T08:22:33.074Z,55.31
2022-08-07T08:23:54.859Z,56.14
2022-08-07T08:25:24.756Z,54.91
2022-08-07T08:26:58.160Z,53.79
2022-08-07T08:28:05.871Z,53.74
2022-08-07T08:29:10.406Z,54.28
2022-08-07T08:30:14.322Z,54.69
2022-08-07T08:31:59.206Z,54.13
2022-08-07T08:32:52.549Z,53.51
2022-08-07T08:33:57.921Z,52.76
2022-08-07T08:35:02.634Z,53.15
2022-08-07T08:36:07.457Z,54.01
2022-08-07T08:37:59.219Z,53.38
2022-08-07T08:38:41.344Z,53.93
2022-08-07T08:39:54.835Z,51.89
2022-08-07T08:41:06.692Z,52.23
2022-08-07T08:42:20.584Z,54.00
2022-08-07T08:43:42.444Z,52.22
2022-08-07T08:45:04.185Z,52.43
2022-08-07T08:46:13.049Z,52.55
2022-08-07T08:47:25.744Z,52.96
2022-08-07T08:48:36.154Z,52.18
2022-08-07T08:49:46.822Z,53.50
2022-08-07T08:51:22.448Z,52.13
2022-08-07T08:52:53.613Z,52.58
2022-08-07T08:54:03.573Z,52.63
2022-08-07T08:55:12.992Z,52.72
2022-08-07T08:56:27.617Z,51.79
2022-08-07T08:57:38.797Z,52.39
2022-08-07T08:58:50.680Z,53.12
2022-08-07T09:00:02.148Z,53.25
2022-08-07T09:01:15.296Z,52.56
2022-08-07T09:02:37.527Z,52.75
2022-08-07T09:03:52.918Z,51.84
2022-08-07T09:05:00.545Z,52.39
2022-08-07T09:06:11.376Z,51.91
2022-08-07T09:07:23.199Z,53.01
2022-08-07T09:08:42.480Z,53.04
2022-08-07T09:10:03.166Z,51.79
2022-08-07T09:11:43.028Z,51.78
2022-08-07T09:12:54.074Z,53.11
2022-08-07T09:14:08.688Z,52.03
2022-08-07T09:16:24.535Z,51.16
2022-08-07T09:17:01.436Z,50.78
2022-08-07T09:18:23.360Z,51.92
2022-08-07T09:19:51.570Z,53.26
2022-08-07T09:21:05.873Z,51.92
2022-08-07T09:24:30.926Z,51.22
2022-08-07T09:24:31.520Z,51.67
2022-08-07T09:25:38.773Z,52.20
2022-08-07T09:26:47.941Z,50.89
2022-08-07T09:28:03.129Z,52.35
2022-08-07T09:30:05.237Z,51.16
2022-08-07T09:30:55.070Z,51.40
2022-08-07T09:32:18.661Z,51.49
2022-08-07T09:33:57.059Z,52.02
2022-08-07T09:36:02.926Z,51.69
2022-08-07T09:36:37.440Z,52.77
2022-08-07T09:37:53.967Z,52.74
2022-08-07T09:39:11.365Z,51.53
2022-08-07T09:40:39.061Z,51.69
2022-08-07T09:42:03.057Z,51.35
2022-08-07T09:43:40.330Z,50.71
2022-08-07T09:47:25.420Z,52.47
2022-08-07T09:47:52.427Z,50.81
2022-08-07T09:48:29.745Z,51.46
2022-08-07T09:50:00.406Z,51.33
2022-08-07T09:52:16.848Z,52.65
2022-08-07T09:52:51.756Z,51.72
2022-08-07T09:54:02.844Z,52.73
2022-08-07T09:55:17.072Z,51.76
2022-08-07T09:56:58.949Z,51.24
2022-08-07T09:58:31.971Z,50.68
2022-08-07T10:00:00.904Z,51.11
2022-08-07T10:01:52.239Z,50.62
2022-08-07T10:04:05.538Z,50.43
2022-08-07T10:04:59.590Z,50.60
2022-08-07T10:06:24.724Z,50.98
2022-08-07T10:07:53.760Z,50.73
2022-08-07T10:09:15.433Z,50.50
2022-08-07T10:10:30.614Z,50.77
2022-08-07T10:12:02.013Z,51.86
2022-08-07T10:14:01.359Z,51.04
2022-08-07T10:15:26.253Z,50.51
2022-08-07T10:16:49.874Z,51.15
2022-08-07T10:18:26.401Z,51.63
2022-08-07T10:19:40.667Z,51.55
2022-08-07T10:20:58.863Z,50.82
2022-08-07T10:22:18.463Z,50.93
2022-08-07T10:24:06.925Z,50.97
2022-08-07T10:25:32.832Z,50.07
2022-08-07T10:26:53.749Z,50.84
2022-08-07T10:28:13.427Z,50.49
2022-08-07T10:29:38.387Z,49.78
2022-08-07T10:30:58.677Z,49.91
2022-08-07T10:32:51.049Z,49.21
2022-08-07T10:34:05.689Z,49.51
2022-08-07T10:35:26.942Z,50.46
2022-08-07T10:37:03.843Z,49.97
2022-08-07T10:38:36.044Z,50.07
2022-08-07T10:40:02.837Z,50.19
2022-08-07T10:41:46.288Z,49.35
2022-08-07T10:42:43.830Z,48.82
2022-08-07T10:44:07.272Z,50.21
2022-08-07T10:45:45.366Z,50.05
2022-08-07T10:46:54.981Z,49.53
2022-08-07T10:48:09.741Z,49.30
2022-08-07T10:49:22.144Z,49.13
2022-08-07T10:50:50.630Z,50.03
2022-08-07T10:52:12.753Z,49.98
2022-08-07T10:53:27.051Z,48.90
2022-08-07T10:54:36.639Z,48.80
2022-08-07T10:55:47.409Z,49.56
2022-08-07T10:57:08.289Z,49.72
2022-08-07T10:58:31.991Z,49.94
2022-08-07T10:59:52.136Z,50.25
2022-08-07T11:01:11.420Z,50.30
2022-08-07T11:02:33.086Z,49.47
2022-08-07T11:03:51.216Z,49.99
2022-08-07T11:05:11.161Z,50.13
2022-08-07T11:06:21.940Z,50.24
2022-08-07T11:07:59.182Z,49.74
2022-08-07T11:09:11.238Z,49.61
2022-08-07T11:10:20.642Z,49.87
2022-08-07T11:11:35.593Z,49.70
2022-08-07T11:12:45.282Z,49.58
2022-08-07T11:14:56.956Z,48.41
2022-08-07T11:15:26.363Z,49.37
2022-08-07T11:16:40.043Z,48.35
2022-08-07T11:17:48.653Z,48.99
2022-08-07T11:18:57.675Z,49.06
2022-08-07T11:20:06.413Z,49.04
2022-08-07T11:21:23.742Z,49.02
2022-08-07T11:22:43.914Z,49.94
2022-08-07T11:23:58.771Z,50.39
2022-08-07T11:25:09.682Z,49.34
2022-08-07T11:26:18.614Z,49.24
2022-08-07T11:28:00.993Z,49.32
2022-08-07T11:28:57.787Z,50.26
2022-08-07T11:30:18.201Z,49.89
2022-08-07T11:31:35.163Z,49.60
2022-08-07T11:32:41.585Z,49.52
2022-08-07T11:33:59.141Z,48.86
2022-08-07T11:35:09.434Z,48.89
2022-08-07T11:36:30.749Z,49.71
2022-08-07T11:37:58.002Z,49.65
2022-08-07T11:39:59.285Z,50.44
2022-08-07T11:40:58.693Z,50.04
2022-08-07T11:42:19.241Z,50.33
2022-08-07T11:43:29.809Z,50.70
2022-08-07T11:44:57.856Z,50.70
2022-08-07T11:46:17.065Z,49.63
2022-08-07T11:47:39.073Z,49.88
2022-08-07T11:49:51.599Z,48.71
2022-08-07T11:50:57.202Z,49.53
2022-08-07T11:52:14.338Z,48.52
2022-08-07T11:53:35.574Z,48.59
2022-08-07T11:54:54.603Z,48.46
2022-08-07T11:56:27.532Z,49.39
2022-08-07T11:58:00.402Z,49.82
2022-08-07T12:00:08.985Z,49.66
2022-08-07T12:00:53.641Z,49.78
2022-08-07T12:02:30.037Z,49.68
2022-08-07T12:04:04.100Z,48.79
2022-08-07T12:05:28.766Z,49.52
2022-08-07T12:06:51.654Z,49.58
2022-08-07T12:08:25.498Z,47.89
2022-08-07T12:09:37.047Z,48.77
2022-08-07T12:10:45.153Z,48.30
2022-08-07T12:12:10.233Z,48.31
2022-08-07T12:13:35.456Z,48.47
2022-08-07T12:14:55.547Z,48.48
2022-08-07T12:16:09.217Z,49.44
2022-08-07T12:17:20.305Z,47.68
2022-08-07T12:18:34.229Z,48.36
2022-08-07T12:20:03.212Z,48.16
2022-08-07T12:21:55.067Z,48.20
2022-08-07T12:22:58.481Z,48.25
2022-08-07T12:24:36.965Z,48.34
2022-08-07T12:26:03.083Z,47.84
2022-08-07T12:27:27.868Z,47.81
2022-08-07T12:28:44.973Z,47.32
2022-08-07T12:29:56.804Z,47.69
2022-08-07T12:31:11.561Z,47.90
2022-08-07T12:32:23.428Z,47.31
2022-08-07T12:33:46.280Z,47.86
2022-08-07T12:34:56.133Z,48.30
2022-08-07T12:36:02.288Z,48.61
2022-08-07T12:37:17.006Z,48.47
2022-08-07T12:38:32.056Z,48.40
2022-08-07T12:39:50.804Z,49.43
2022-08-07T12:40:55.426Z,48.91
2022-08-07T12:42:02.408Z,49.37
2022-08-07T12:43:09.512Z,49.35
2022-08-07T12:44:17.334Z,48.91
2022-08-07T12:45:22.476Z,48.52
2022-08-07T12:46:38.194Z,48.58
2022-08-07T12:47:50.579Z,48.60
2022-08-07T12:49:09.792Z,48.88
2022-08-07T12:50:40.360Z,48.26
2022-08-07T12:52:12.454Z,47.41
2022-08-07T12:53:27.626Z,47.34
2022-08-07T12:54:38.046Z,47.55
2022-08-07T12:56:02.905Z,47.91
2022-08-07T12:57:10.614Z,48.45
2022-08-07T12:58:15.841Z,47.81
2022-08-07T12:59:21.905Z,47.53
2022-08-07T13:00:34.505Z,48.32
2022-08-07T13:01:55.619Z,48.09
2022-08-07T13:03:27.595Z,49.29
2022-08-07T13:05:01.555Z,48.21
2022-08-07T13:06:21.915Z,48.17
2022-08-07T13:08:12.080Z,47.72
2022-08-07T13:10:21.693Z,47.75
2022-08-07T13:11:04.322Z,47.84
2022-08-07T13:12:15.362Z,47.93
2022-08-07T13:13:48.212Z,47.49
2022-08-07T13:15:14.138Z,47.60
2022-08-07T13:16:27.301Z,46.92
2022-08-07T13:17:42.731Z,46.00
2022-08-07T13:18:54.629Z,46.31
2022-08-07T13:20:03.645Z,47.58
2022-08-07T13:21:15.621Z,46.59
2022-08-07T13:22:43.256Z,47.51
2022-08-07T13:24:04.710Z,46.74
2022-08-07T13:25:23.926Z,47.96
2022-08-07T13:26:43.089Z,47.14
2022-08-07T13:28:11.619Z,47.00
2022-08-07T13:29:21.671Z,46.04
2022-08-07T13:30:40.145Z,46.87
2022-08-07T13:31:57.771Z,47.07
2022-08-07T13:34:11.679Z,47.30
2022-08-07T13:34:44.852Z,47.72
2022-08-07T13:35:59.536Z,47.63
2022-08-07T13:37:10.685Z,47.51
2022-08-07T13:38:28.433Z,48.07
2022-08-07T13:40:33.721Z,47.47
2022-08-07T13:41:08.847Z,48.14
2022-08-07T13:42:14.589Z,46.56
2022-08-07T13:43:26.277Z,47.56
2022-08-07T13:44:34.566Z,46.69
2022-08-07T13:46:11.533Z,46.80
2022-08-07T13:47:15.151Z,46.62
2022-08-07T13:48:31.777Z,46.75
2022-08-07T13:50:33.936Z,47.08
2022-08-07T13:51:26.870Z,45.81
2022-08-07T13:52:38.099Z,45.28
2022-08-07T13:53:59.441Z,46.13
2022-08-07T13:55:10.903Z,46.09
2022-08-07T13:56:19.051Z,46.95
2022-08-07T13:57:38.123Z,46.55
2022-08-07T13:59:01.002Z,46.98
2022-08-07T14:00:06.436Z,45.57
2022-08-07T14:01:20.317Z,46.21
2022-08-07T14:02:29.617Z,47.32
2022-08-07T14:04:06.986Z,46.42
2022-08-07T14:05:07.241Z,45.19
2022-08-07T14:06:12.723Z,45.87
2022-08-07T14:07:16.733Z,45.55
2022-08-07T14:08:21.483Z,46.33
2022-08-07T14:10:01.933Z,46.93
2022-08-07T14:11:01.899Z,47.21
2022-08-07T14:12:27.393Z,46.90
2022-08-07T14:13:33.568Z,47.52
2022-08-07T14:14:42.575Z,46.55
2022-08-07T14:15:52.024Z,46.45
2022-08-07T14:16:57.618Z,47.71
2022-08-07T14:18:16.121Z,47.20
2022-08-07T14:20:42.000Z,45.40
2022-08-07T14:21:08.311Z,45.33
2022-08-07T14:22:34.692Z,44.97
2022-08-07T14:24:00.085Z,45.31
2022-08-07T14:25:08.227Z,45.78
2022-08-07T14:26:29.914Z,45.40
2022-08-07T14:28:10.349Z,45.97
2022-08-07T14:30:02.532Z,45.85
2022-08-07T14:30:33.066Z,46.06
2022-08-07T14:31:42.867Z,44.94
2022-08-07T14:32:58.148Z,45.19
2022-08-07T14:34:01.672Z,44.76
2022-08-07T14:35:17.029Z,46.26
2022-08-07T14:36:41.432Z,45.75
2022-08-07T14:38:03.313Z,46.45
2022-08-07T14:39:12.547Z,45.00
2022-08-07T14:40:35.737Z,45.55
2022-08-07T14:42:20.183Z,45.61
2022-08-07T14:43:57.265Z,44.64
2022-08-07T14:44:30.249Z,45.27
2022-08-07T14:45:46.748Z,45.67
2022-08-07T14:47:08.464Z,45.54
2022-08-07T14:48:20.806Z,43.61
2022-08-07T14:50:56.186Z,45.20
2022-08-07T14:52:04.612Z,44.40
2022-08-07T14:54:08.681Z,45.30
2022-08-07T14:54:54.025Z,44.80
2022-08-07T14:56:00.907Z,45.47
2022-08-07T14:57:07.542Z,45.44
2022-08-07T14:58:24.126Z,45.15
2022-08-07T15:00:04.615Z,45.78
2022-08-07T15:00:53.325Z,46.39
2022-08-07T15:01:58.250Z,45.64
2022-08-07T15:04:29.374Z,45.56
2022-08-07T15:05:35.976Z,45.77
2022-08-07T15:07:00.930Z,45.94
2022-08-07T15:08:07.200Z,46.21
2022-08-07T15:12:10.170Z,45.94
2022-08-07T15:13:05.804Z,46.63
2022-08-07T15:13:35.934Z,46.64
2022-08-07T15:14:58.355Z,46.46
2022-08-07T15:16:04.606Z,46.91
2022-08-07T15:17:16.686Z,46.75
2022-08-07T15:18:33.601Z,46.71
2022-08-07T15:21:58.960Z,46.82
2022-08-07T15:22:51.634Z,47.10
2022-08-07T15:25:36.712Z,44.75
2022-08-07T15:26:43.969Z,45.86
2022-08-07T15:30:06.635Z,45.87
2022-08-07T15:32:11.769Z,44.75
2022-08-07T15:33:20.134Z,45.19
2022-08-07T15:34:26.216Z,45.02
2022-08-07T15:37:02.909Z,45.80
2022-08-07T15:38:30.123Z,45.58
2022-08-07T15:41:22.829Z,46.71
2022-08-07T15:42:52.097Z,46.22
2022-08-07T15:44:01.348Z,47.29
2022-08-07T15:46:38.516Z,45.89
2022-08-07T15:48:00.786Z,47.02
2022-08-07T15:49:14.248Z,46.34
2022-08-07T15:50:37.530Z,46.29
2022-08-07T15:53:06.455Z,47.00
2022-08-07T15:54:13.998Z,47.09
2022-08-07T15:55:20.699Z,46.83
2022-08-07T15:56:38.137Z,46.70
2022-08-07T15:57:49.390Z,46.92
2022-08-07T15:58:55.048Z,46.84
2022-08-07T16:00:04.183Z,47.00
2022-08-07T16:01:20.912Z,46.88
2022-08-07T16:02:26.094Z,46.83
2022-08-07T16:03:46.420Z,46.72
2022-08-07T16:04:49.664Z,47.17
2022-08-07T16:05:54.378Z,46.74
2022-08-07T16:06:59.495Z,46.65
2022-08-07T16:08:32.057Z,47.02
2022-08-07T16:09:54.043Z,46.93
2022-08-07T16:11:02.517Z,47.13
2022-08-07T16:12:15.084Z,46.83
2022-08-07T16:13:58.684Z,47.03
2022-08-07T16:15:55.029Z,47.35
2022-08-07T16:18:00.679Z,47.42
2022-08-07T16:18:57.961Z,47.38
2022-08-07T16:20:33.954Z,47.07
2022-08-07T16:22:02.238Z,47.58
2022-08-07T16:23:25.222Z,47.13
2022-08-07T16:24:52.823Z,46.72
2022-08-07T16:26:10.239Z,46.03
2022-08-07T16:27:25.407Z,46.73
2022-08-07T16:30:05.490Z,46.46
2022-08-07T16:30:30.511Z,46.15